Aeroporto :
LOGIN :

Iscrizione | Disclaimer

   EN    FR    IT 

 










Sommario :    VFR   VFR Marginale   IFR   IFR Intensivo   IFR Molto Intensivo
Visibilità : 
Base nubi : 
>= 8 km
>= 3000ft
5 / 8 km
1000 / 3000 ft
1500m / 5 km
500 / 1000 ft
800 / 1500m
200 / 500 ft
< 800m
< 200 ft
Simboli :   Temporali  Nebbia  Neve Forte  Precipitazioni Forti  Vento > 20 kt
SIGMETs :   Varie  Temporali  Ghiacco  Turbolenza  Onda orograficha  Ceneri Vulcaniche






- Altitudine del aeroporto : 1548 ft


LKNA - Náměšť Air Base

ULTIMO METAR :
  • 142100Z 11015KT 9999 FEW019 04/02 Q1009 RMK BLU

METARs OBSOLETI :
  • 142000Z 10012KT 9999 FEW018 04/02 Q1008 NOSIG RMK BLU BLU
  • 141900Z 10011KT 9999 FEW017 03/02 Q1008 NOSIG RMK BLU BLU
  • 141800Z 10009KT 9999 FEW020 03/03 Q1008 NOSIG RMK BLU BLU

TAF COR TAF LKNA
Valido dal 14 a 18 ore il 15 a 18 ore UTC


141700Z 1418/1518 10006KT 9999 BKN020
BECMG 1418/1420 6000 SCT006 BKN020
BECMG 1420/1422 3000 BR BKN005
TEMPO 1422/1512 0400 FG VV002
BECMG 1500/1502 12010KT
TEMPO 1502/1518 12014G26KT



MetMap, La meteo Aeronautica in un colpo d'occhio ! - Copyright ORBIFLY Dicembre 2007 - Disclaimer

ORBIFLY MET'MAP TEAM :

Programmazione e sviluppo : Alexandra Zaïnal
Concezione e sviluppo : Baudouin d'Aumeries
Co-Programmazione e sviluppo : Marc-Olivier Méhu
Supporto tecnico e logistico : Manuel Goepfert
Aiuto per la traduzione : Arnaldo La Scala

Contatto : metmap@orbifly.com




FONTI E CREDITI :

   NOAA